createdAt,value
2023-05-08T00:00:30.052Z,14.17
2023-05-08T00:02:58.354Z,10.60
2023-05-08T00:05:26.627Z,10.43
2023-05-08T00:08:01.155Z,10.80
2023-05-08T00:10:30.114Z,12.63
2023-05-08T00:12:59.119Z,11.53
2023-05-08T00:15:28.761Z,12.17
2023-05-08T00:17:57.137Z,15.20
2023-05-08T00:20:25.498Z,11.80
2023-05-08T00:22:53.749Z,15.60
2023-05-08T00:25:22.018Z,12.77
2023-05-08T00:27:50.692Z,12.10
2023-05-08T00:30:19.550Z,12.53
2023-05-08T00:32:49.155Z,12.00
2023-05-08T00:35:17.452Z,13.00
2023-05-08T00:37:45.634Z,18.13
2023-05-08T00:40:14.359Z,10.57
2023-05-08T00:42:42.936Z,13.33
2023-05-08T00:45:11.677Z,10.10
2023-05-08T00:47:40.544Z,13.67
2023-05-08T00:50:12.054Z,11.37
2023-05-08T00:52:41.178Z,10.00
2023-05-08T00:55:10.215Z,7.23
2023-05-08T00:57:39.492Z,5.53
2023-05-08T01:00:09.166Z,7.00
2023-05-08T01:02:37.889Z,7.57
2023-05-08T01:05:07.877Z,5.23
2023-05-08T01:07:38.895Z,8.00
2023-05-08T01:10:08.394Z,5.70
2023-05-08T01:12:59.410Z,5.70
2023-05-08T01:15:32.326Z,5.40
2023-05-08T01:18:12.424Z,4.13
2023-05-08T01:20:46.796Z,4.70
2023-05-08T01:23:49.603Z,4.90
2023-05-08T01:26:49.008Z,5.10
2023-05-08T01:29:49.277Z,7.43
2023-05-08T01:32:21.836Z,4.63
2023-05-08T01:35:08.756Z,4.80
2023-05-08T01:37:42.433Z,4.77
2023-05-08T01:40:26.914Z,4.37
2023-05-08T01:43:04.552Z,4.27
2023-05-08T01:45:39.555Z,4.80
2023-05-08T01:48:12.386Z,4.47
2023-05-08T01:50:47.159Z,5.47
2023-05-08T01:53:23.914Z,5.17
2023-05-08T01:55:58.095Z,4.60
2023-05-08T01:58:28.232Z,6.03
2023-05-08T02:00:57.786Z,6.50
2023-05-08T02:03:28.209Z,8.03
2023-05-08T02:05:58.628Z,10.27
2023-05-08T02:08:29.458Z,8.67
2023-05-08T02:11:00.241Z,8.07
2023-05-08T02:13:30.822Z,5.80
2023-05-08T02:16:00.565Z,6.70
2023-05-08T02:18:32.876Z,5.73
2023-05-08T02:21:03.556Z,5.10
2023-05-08T02:23:35.994Z,4.67
2023-05-08T02:26:05.584Z,5.20
2023-05-08T02:28:34.569Z,5.20
2023-05-08T02:31:03.599Z,6.83
2023-05-08T02:33:33.545Z,5.20
2023-05-08T02:36:03.357Z,6.13
2023-05-08T02:38:32.678Z,6.00
2023-05-08T02:41:05.480Z,6.60
2023-05-08T02:43:34.289Z,5.70
2023-05-08T02:46:10.995Z,6.07
2023-05-08T02:48:48.776Z,5.37
2023-05-08T02:51:23.343Z,6.07
2023-05-08T02:53:56.863Z,6.53
2023-05-08T02:56:35.165Z,6.70
2023-05-08T02:59:15.012Z,7.93
2023-05-08T03:02:07.821Z,6.10
2023-05-08T03:04:41.391Z,6.30
2023-05-08T03:07:10.144Z,6.33
2023-05-08T03:09:44.401Z,6.50
2023-05-08T03:12:16.057Z,7.90
2023-05-08T03:14:48.229Z,6.00
2023-05-08T03:17:18.077Z,8.20
2023-05-08T03:19:53.324Z,12.13
2023-05-08T03:22:23.187Z,6.87
2023-05-08T03:24:52.868Z,6.63
2023-05-08T03:27:21.858Z,7.53
2023-05-08T03:29:52.316Z,6.90
2023-05-08T03:32:22.455Z,7.17
2023-05-08T03:34:53.369Z,9.03
2023-05-08T03:37:22.582Z,7.13
2023-05-08T03:39:52.474Z,7.57
2023-05-08T03:42:22.127Z,7.70
2023-05-08T03:44:52.222Z,9.03
2023-05-08T03:47:22.201Z,9.73
2023-05-08T03:49:52.751Z,10.50
2023-05-08T03:52:21.282Z,12.17
2023-05-08T03:54:49.483Z,8.00
2023-05-08T03:57:18.006Z,8.90
2023-05-08T03:59:53.508Z,8.60
2023-05-08T04:02:30.889Z,10.40
2023-05-08T04:05:15.131Z,7.83
2023-05-08T04:07:51.068Z,8.50
2023-05-08T04:10:25.589Z,8.90
2023-05-08T04:13:05.384Z,9.50
2023-05-08T04:15:39.556Z,9.07
2023-05-08T04:18:10.962Z,9.63
2023-05-08T04:20:44.510Z,9.27
2023-05-08T04:23:17.242Z,8.37
2023-05-08T04:25:47.537Z,8.50
2023-05-08T04:28:16.397Z,10.90
2023-05-08T04:30:45.566Z,10.60
2023-05-08T04:33:15.552Z,11.03
2023-05-08T04:35:46.403Z,9.47
2023-05-08T04:38:14.767Z,11.60
2023-05-08T04:40:43.195Z,12.30
2023-05-08T04:43:11.505Z,10.20
2023-05-08T04:45:40.168Z,11.20
2023-05-08T04:48:08.626Z,13.17
2023-05-08T04:50:37.019Z,12.50
2023-05-08T04:53:06.626Z,9.90
2023-05-08T04:55:34.917Z,11.73
2023-05-08T04:58:03.099Z,11.90
2023-05-08T05:00:31.473Z,9.03
2023-05-08T05:02:59.780Z,14.10
2023-05-08T05:05:28.075Z,10.13
2023-05-08T05:07:56.256Z,10.57
2023-05-08T05:10:25.782Z,10.80
2023-05-08T05:12:54.081Z,11.60
2023-05-08T05:15:22.479Z,10.03
2023-05-08T05:17:51.159Z,10.90
2023-05-08T05:20:19.664Z,11.30
2023-05-08T05:22:48.294Z,10.03
2023-05-08T05:25:16.752Z,10.97
2023-05-08T05:27:46.649Z,11.27
2023-05-08T05:30:15.465Z,11.13
2023-05-08T05:32:44.235Z,11.33
2023-05-08T05:35:12.940Z,16.83
2023-05-08T05:37:41.683Z,10.57
2023-05-08T05:40:13.568Z,12.63
2023-05-08T05:42:41.836Z,11.60
2023-05-08T05:45:12.452Z,12.17
2023-05-08T05:47:45.970Z,12.10
2023-05-08T05:50:14.652Z,10.20
2023-05-08T05:52:43.046Z,11.67
2023-05-08T05:55:11.584Z,12.07
2023-05-08T05:57:40.289Z,13.73
2023-05-08T06:00:11.348Z,11.37
2023-05-08T06:02:41.808Z,11.10
2023-05-08T06:05:11.548Z,11.73
2023-05-08T06:07:39.978Z,10.87
2023-05-08T06:10:09.729Z,11.27
2023-05-08T06:12:38.314Z,14.60
2023-05-08T06:15:08.033Z,12.00
2023-05-08T06:17:36.403Z,10.50
2023-05-08T06:20:08.392Z,11.53
2023-05-08T06:22:37.950Z,13.30
2023-05-08T06:25:08.305Z,11.53
2023-05-08T06:27:36.878Z,11.97
2023-05-08T06:30:08.438Z,11.70
2023-05-08T06:32:37.449Z,10.80
2023-05-08T06:35:08.740Z,10.93
2023-05-08T06:37:37.088Z,11.13
2023-05-08T06:40:14.276Z,15.23
2023-05-08T06:42:42.948Z,11.17
2023-05-08T06:45:12.638Z,13.47
2023-05-08T06:47:41.346Z,11.23
2023-05-08T06:50:11.880Z,9.73
2023-05-08T06:52:58.735Z,12.00
2023-05-08T06:55:47.478Z,11.30
2023-05-08T06:58:35.811Z,11.17
2023-05-08T07:01:24.194Z,11.30
2023-05-08T07:03:52.574Z,11.40
2023-05-08T07:06:22.192Z,10.07
2023-05-08T07:08:51.230Z,13.97
2023-05-08T07:11:19.641Z,11.63
2023-05-08T07:13:48.293Z,10.03
2023-05-08T07:16:17.125Z,9.97
2023-05-08T07:18:46.003Z,11.93
2023-05-08T07:21:15.702Z,10.37
2023-05-08T07:23:45.545Z,9.60
2023-05-08T07:26:15.081Z,13.40
2023-05-08T07:28:46.016Z,9.17
2023-05-08T07:31:14.261Z,10.67
2023-05-08T07:33:42.580Z,10.17
2023-05-08T07:36:10.910Z,15.20
2023-05-08T07:39:01.399Z,12.43
2023-05-08T07:41:50.302Z,12.30
2023-05-08T07:44:53.240Z,17.60
2023-05-08T07:47:50.754Z,10.47
2023-05-08T07:50:39.127Z,12.77
2023-05-08T07:53:27.914Z,11.67
2023-05-08T07:56:18.613Z,9.67
2023-05-08T07:59:07.276Z,11.17
2023-05-08T08:01:55.535Z,9.47
2023-05-08T08:04:44.165Z,10.40
2023-05-08T08:07:33.806Z,9.73
2023-05-08T08:10:22.814Z,12.00
2023-05-08T08:13:13.048Z,10.70
2023-05-08T08:16:06.082Z,8.73
2023-05-08T08:18:54.803Z,8.77
2023-05-08T08:21:47.374Z,9.67
2023-05-08T08:24:35.762Z,9.30
2023-05-08T08:27:24.360Z,10.60
2023-05-08T08:30:18.054Z,8.80
2023-05-08T08:33:07.623Z,9.93
2023-05-08T08:35:56.726Z,10.23
2023-05-08T08:38:45.853Z,15.10
2023-05-08T08:41:35.847Z,9.13
2023-05-08T08:44:04.351Z,10.27
2023-05-08T08:46:34.978Z,10.93
2023-05-08T08:49:05.794Z,9.93
2023-05-08T08:51:39.641Z,10.00
2023-05-08T08:54:14.627Z,9.97
2023-05-08T08:56:46.083Z,12.90
2023-05-08T08:59:16.837Z,10.70
2023-05-08T09:01:51.801Z,13.90
2023-05-08T09:04:20.935Z,11.27
2023-05-08T09:06:51.641Z,10.93
2023-05-08T09:09:19.910Z,10.83
2023-05-08T09:11:48.764Z,12.63
2023-05-08T09:14:16.937Z,9.97
2023-05-08T09:16:46.850Z,10.53
2023-05-08T09:19:16.133Z,10.63
2023-05-08T09:21:45.028Z,9.60
2023-05-08T09:24:14.148Z,11.00
2023-05-08T09:26:43.048Z,10.63
2023-05-08T09:29:13.120Z,10.33
2023-05-08T09:31:43.835Z,13.67
2023-05-08T09:34:24.417Z,10.33
2023-05-08T09:36:52.661Z,13.30
2023-05-08T09:39:24.910Z,10.20
2023-05-08T09:42:00.686Z,10.67
2023-05-08T09:44:29.413Z,11.87
2023-05-08T09:47:12.042Z,10.57
2023-05-08T09:49:41.751Z,10.60
2023-05-08T09:52:16.751Z,12.03
2023-05-08T09:54:45.399Z,11.63
2023-05-08T09:57:14.763Z,9.57
2023-05-08T09:59:43.298Z,10.37
2023-05-08T10:02:16.111Z,12.00
2023-05-08T10:04:46.353Z,10.30
2023-05-08T10:07:15.120Z,10.03
2023-05-08T10:09:59.538Z,11.13
2023-05-08T10:12:28.538Z,10.17
2023-05-08T10:14:59.621Z,10.50
2023-05-08T10:17:30.648Z,10.70
2023-05-08T10:20:04.405Z,14.77
2023-05-08T10:22:36.845Z,10.80
2023-05-08T10:25:12.048Z,11.47
2023-05-08T10:27:46.815Z,10.70
2023-05-08T10:30:18.206Z,10.03
2023-05-08T10:32:51.887Z,13.10
2023-05-08T10:35:21.954Z,12.77
2023-05-08T10:37:50.553Z,12.87
2023-05-08T10:40:21.247Z,13.70
2023-05-08T10:42:51.730Z,12.53
2023-05-08T10:45:20.153Z,10.67
2023-05-08T10:47:59.533Z,10.27
2023-05-08T10:50:39.657Z,9.50
2023-05-08T10:53:12.683Z,10.03
2023-05-08T10:55:43.483Z,11.90
2023-05-08T10:58:14.994Z,9.30
2023-05-08T11:01:13.982Z,11.13
2023-05-08T11:03:44.713Z,11.00
2023-05-08T11:06:15.276Z,12.67
2023-05-08T11:08:54.698Z,10.30
2023-05-08T11:11:31.403Z,10.17
2023-05-08T11:14:11.455Z,10.43
2023-05-08T11:17:10.826Z,10.87
2023-05-08T11:19:39.856Z,11.20
2023-05-08T11:22:38.213Z,10.03
2023-05-08T11:25:09.622Z,9.30
2023-05-08T11:28:17.393Z,10.03
2023-05-08T11:30:46.839Z,9.40
2023-05-08T11:33:16.830Z,8.37
2023-05-08T11:35:51.344Z,12.00
2023-05-08T11:38:32.581Z,10.03
2023-05-08T11:41:06.143Z,10.80
2023-05-08T11:44:15.015Z,9.50
2023-05-08T11:46:49.715Z,11.80
2023-05-08T11:49:22.940Z,11.30
2023-05-08T11:51:57.935Z,11.63
2023-05-08T11:54:31.409Z,10.40
2023-05-08T11:56:59.855Z,8.37
2023-05-08T11:59:28.110Z,11.40
2023-05-08T12:02:06.976Z,8.67
2023-05-08T12:04:45.870Z,7.67
2023-05-08T12:07:14.314Z,8.90
2023-05-08T12:09:46.954Z,7.97
2023-05-08T12:12:15.277Z,8.77
2023-05-08T12:14:43.793Z,8.77
2023-05-08T12:17:12.570Z,7.10
2023-05-08T12:19:41.460Z,7.13
2023-05-08T12:22:13.548Z,10.30
2023-05-08T12:24:43.865Z,7.20
2023-05-08T12:27:14.039Z,6.67
2023-05-08T12:29:46.317Z,6.77
2023-05-08T12:32:14.743Z,7.63
2023-05-08T12:34:43.016Z,7.07
2023-05-08T12:37:11.723Z,11.43
2023-05-08T12:39:46.774Z,6.47
2023-05-08T12:42:15.047Z,7.20
2023-05-08T12:44:51.634Z,9.20
2023-05-08T12:47:21.132Z,7.63
2023-05-08T12:49:50.145Z,7.70
2023-05-08T12:52:19.318Z,6.97
2023-05-08T12:54:50.088Z,6.53
2023-05-08T12:57:21.293Z,8.83
2023-05-08T12:59:49.916Z,5.83
2023-05-08T13:02:19.336Z,5.67
2023-05-08T13:04:47.818Z,7.57
2023-05-08T13:07:16.274Z,5.43
2023-05-08T13:09:59.764Z,5.20
2023-05-08T13:12:28.020Z,5.67
2023-05-08T13:14:56.261Z,5.57
2023-05-08T13:17:24.784Z,5.80
2023-05-08T13:19:53.280Z,5.37
2023-05-08T13:22:23.054Z,6.00
2023-05-08T13:24:51.415Z,5.77
2023-05-08T13:27:21.236Z,7.07
2023-05-08T13:29:49.481Z,6.80
2023-05-08T13:32:18.058Z,7.40
2023-05-08T13:34:50.145Z,7.40
2023-05-08T13:37:20.635Z,8.17
2023-05-08T13:39:49.002Z,8.60
2023-05-08T13:42:17.566Z,9.53
2023-05-08T13:44:47.299Z,8.70
2023-05-08T13:47:15.590Z,8.67
2023-05-08T13:49:44.760Z,9.23
2023-05-08T13:52:13.014Z,8.50
2023-05-08T13:54:41.373Z,9.20
2023-05-08T13:57:09.754Z,9.13
2023-05-08T13:59:38.300Z,9.30
2023-05-08T14:02:08.700Z,11.40
2023-05-08T14:04:37.127Z,9.47
2023-05-08T14:07:05.515Z,11.70
2023-05-08T14:09:34.350Z,7.87
2023-05-08T14:12:03.197Z,9.83
2023-05-08T14:14:33.672Z,8.00
2023-05-08T14:17:02.837Z,6.63
2023-05-08T14:19:33.042Z,8.33
2023-05-08T14:22:01.469Z,8.20
2023-05-08T14:24:29.758Z,6.37
2023-05-08T14:26:59.312Z,7.37
2023-05-08T14:29:27.847Z,6.23
2023-05-08T14:31:56.111Z,6.77
2023-05-08T14:34:24.515Z,5.67
2023-05-08T14:36:54.281Z,9.00
2023-05-08T14:39:22.658Z,6.43
2023-05-08T14:42:14.384Z,7.33
2023-05-08T14:44:39.213Z,8.20
2023-05-08T14:47:07.592Z,6.90
2023-05-08T14:49:38.553Z,7.63
2023-05-08T14:52:08.710Z,8.20
2023-05-08T14:54:37.500Z,8.80
2023-05-08T14:57:08.602Z,7.33
2023-05-08T14:59:39.831Z,7.13
2023-05-08T15:02:14.550Z,6.40
2023-05-08T15:04:43.429Z,8.60
2023-05-08T15:07:12.987Z,7.27
2023-05-08T15:09:41.244Z,7.63
2023-05-08T15:12:09.947Z,9.30
2023-05-08T15:14:38.272Z,7.73
2023-05-08T15:17:06.609Z,6.50
2023-05-08T15:19:35.051Z,9.30
2023-05-08T15:22:03.686Z,5.97
2023-05-08T15:24:33.602Z,6.97
2023-05-08T15:27:02.003Z,6.70
2023-05-08T15:29:30.279Z,6.40
2023-05-08T15:31:58.805Z,7.13
2023-05-08T15:34:29.538Z,7.10
2023-05-08T15:37:01.019Z,6.37
2023-05-08T15:39:29.239Z,7.17
2023-05-08T15:41:58.743Z,10.23
2023-05-08T15:44:37.625Z,8.37
2023-05-08T15:47:15.383Z,7.83
2023-05-08T15:49:43.955Z,7.93
2023-05-08T15:52:12.331Z,8.77
2023-05-08T15:54:40.956Z,6.97
2023-05-08T15:57:10.697Z,7.90
2023-05-08T15:59:38.892Z,7.40
2023-05-08T16:02:07.408Z,9.93
2023-05-08T16:04:35.763Z,8.50
2023-05-08T16:07:04.412Z,9.00
2023-05-08T16:09:32.816Z,9.13
2023-05-08T16:12:01.386Z,7.60
2023-05-08T16:14:31.164Z,10.33
2023-05-08T16:16:59.629Z,9.20
2023-05-08T16:19:28.089Z,10.83
2023-05-08T16:21:56.820Z,7.80
2023-05-08T16:24:25.470Z,8.87
2023-05-08T16:26:53.832Z,7.77
2023-05-08T16:29:22.043Z,7.47
2023-05-08T16:31:51.884Z,9.50
2023-05-08T16:34:20.615Z,8.03
2023-05-08T16:36:49.326Z,7.00
2023-05-08T16:39:17.881Z,7.43
2023-05-08T16:41:46.130Z,6.83
2023-05-08T16:44:15.052Z,7.67
2023-05-08T16:46:43.641Z,6.17
2023-05-08T16:49:13.348Z,10.20
2023-05-08T16:51:41.689Z,7.77
2023-05-08T16:54:09.882Z,7.17
2023-05-08T16:56:38.301Z,9.43
2023-05-08T16:59:06.946Z,8.07
2023-05-08T17:01:35.473Z,7.53
2023-05-08T17:04:03.889Z,7.50
2023-05-08T17:06:33.872Z,8.63
2023-05-08T17:09:02.143Z,8.00
2023-05-08T17:11:30.547Z,9.07
2023-05-08T17:13:58.791Z,7.67
2023-05-08T17:16:27.404Z,7.70
2023-05-08T17:18:55.976Z,6.60
2023-05-08T17:21:24.259Z,6.80
2023-05-08T17:23:54.336Z,11.63
2023-05-08T17:26:22.865Z,6.20
2023-05-08T17:28:51.492Z,7.73
2023-05-08T17:31:20.505Z,7.40
2023-05-08T17:33:49.144Z,6.67
2023-05-08T17:36:17.417Z,5.70
2023-05-08T17:38:46.361Z,5.97
2023-05-08T17:41:15.937Z,8.30
2023-05-08T17:43:44.583Z,6.00
2023-05-08T17:46:13.240Z,6.73
2023-05-08T17:48:41.555Z,5.97
2023-05-08T17:51:13.514Z,6.27
2023-05-08T17:53:41.926Z,6.07
2023-05-08T17:56:10.846Z,8.10
2023-05-08T17:58:40.440Z,7.20
2023-05-08T18:01:11.659Z,6.90
2023-05-08T18:03:40.901Z,6.40
2023-05-08T18:06:09.750Z,6.57
2023-05-08T18:08:38.742Z,6.87
2023-05-08T18:11:08.327Z,7.93
2023-05-08T18:13:36.798Z,8.40
2023-05-08T18:16:06.667Z,6.50
2023-05-08T18:18:35.782Z,7.10
2023-05-08T18:21:04.024Z,6.37
2023-05-08T18:23:32.319Z,6.67
2023-05-08T18:26:00.807Z,7.20
2023-05-08T18:28:29.456Z,5.93
2023-05-08T18:30:57.902Z,6.97
2023-05-08T18:33:27.917Z,6.07
2023-05-08T18:35:56.925Z,6.60
2023-05-08T18:38:25.385Z,5.90
2023-05-08T18:40:53.857Z,6.20
2023-05-08T18:43:22.315Z,10.03
2023-05-08T18:45:50.793Z,5.90
2023-05-08T18:48:19.114Z,8.40
2023-05-08T18:50:48.684Z,6.67
2023-05-08T18:53:17.084Z,8.17
2023-05-08T18:55:45.387Z,6.53
2023-05-08T18:58:13.952Z,5.93
2023-05-08T19:00:42.341Z,7.03
2023-05-08T19:03:10.979Z,7.30
2023-05-08T19:05:39.550Z,6.57
2023-05-08T19:08:09.470Z,6.50
2023-05-08T19:10:37.722Z,7.27
2023-05-08T19:13:06.052Z,7.43
2023-05-08T19:15:34.359Z,7.60
2023-05-08T19:18:03.075Z,7.50
2023-05-08T19:20:31.425Z,6.87
2023-05-08T19:22:59.720Z,6.70
2023-05-08T19:25:29.363Z,6.90
2023-05-08T19:27:58.741Z,8.43
2023-05-08T19:30:27.203Z,8.20
2023-05-08T19:32:55.394Z,7.47
2023-05-08T19:35:23.731Z,6.07
2023-05-08T19:37:52.061Z,7.93
2023-05-08T19:40:20.535Z,7.33
2023-05-08T19:42:50.358Z,6.80
2023-05-08T19:45:18.641Z,6.67
2023-05-08T19:47:49.272Z,6.57
2023-05-08T19:50:19.264Z,6.20
2023-05-08T19:52:48.741Z,8.00
2023-05-08T19:55:17.917Z,6.33
2023-05-08T19:57:46.439Z,6.70
2023-05-08T20:00:16.518Z,6.67
2023-05-08T20:02:45.130Z,8.63
2023-05-08T20:05:22.708Z,8.60
2023-05-08T20:07:51.872Z,6.57
2023-05-08T20:10:20.109Z,8.07
2023-05-08T20:12:48.379Z,6.60
2023-05-08T20:15:18.074Z,7.40
2023-05-08T20:17:46.360Z,6.93
2023-05-08T20:20:15.016Z,6.03
2023-05-08T20:22:43.436Z,8.53
2023-05-08T20:25:12.119Z,6.43
2023-05-08T20:27:40.582Z,7.37
2023-05-08T20:30:09.830Z,7.00
2023-05-08T20:32:39.912Z,7.30
2023-05-08T20:35:09.449Z,8.10
2023-05-08T20:37:43.916Z,7.90
2023-05-08T20:40:13.002Z,8.30
2023-05-08T20:42:41.744Z,7.30
2023-05-08T20:45:11.244Z,9.60
2023-05-08T20:47:40.908Z,8.10
2023-05-08T20:50:09.515Z,10.83
2023-05-08T20:52:38.889Z,8.10
2023-05-08T20:55:09.896Z,12.27
2023-05-08T20:57:38.393Z,9.20
2023-05-08T21:00:08.295Z,7.00
2023-05-08T21:02:38.714Z,8.50
2023-05-08T21:05:09.392Z,8.10
2023-05-08T21:07:37.723Z,8.23
2023-05-08T21:10:06.683Z,8.40
2023-05-08T21:12:35.000Z,9.80
2023-05-08T21:15:03.536Z,8.90
2023-05-08T21:17:31.958Z,8.30
2023-05-08T21:20:03.503Z,8.07
2023-05-08T21:22:34.464Z,8.83
2023-05-08T21:25:03.007Z,12.93
2023-05-08T21:27:31.268Z,11.07
2023-05-08T21:30:01.923Z,10.40
2023-05-08T21:32:30.337Z,6.97
2023-05-08T21:34:58.660Z,7.87
2023-05-08T21:37:26.871Z,7.70
2023-05-08T21:39:56.946Z,12.77
2023-05-08T21:42:25.256Z,8.73
2023-05-08T21:44:55.759Z,9.23
2023-05-08T21:47:27.818Z,10.57
2023-05-08T21:49:57.245Z,8.93
2023-05-08T21:52:25.995Z,8.07
2023-05-08T21:54:54.823Z,8.73
2023-05-08T21:57:24.532Z,9.40
2023-05-08T21:59:53.604Z,9.63
2023-05-08T22:02:22.320Z,9.87
2023-05-08T22:04:50.587Z,13.33
2023-05-08T22:07:19.334Z,9.00
2023-05-08T22:09:47.563Z,9.50
2023-05-08T22:12:15.847Z,10.03
2023-05-08T22:14:45.505Z,9.70
2023-05-08T22:17:13.873Z,9.87
2023-05-08T22:19:42.103Z,8.60
2023-05-08T22:22:10.615Z,14.43
2023-05-08T22:24:39.020Z,10.90
2023-05-08T22:27:07.302Z,9.33
2023-05-08T22:29:35.649Z,11.03
2023-05-08T22:32:05.861Z,11.37
2023-05-08T22:34:34.139Z,9.00
2023-05-08T22:37:02.590Z,9.73
2023-05-08T22:39:30.823Z,8.90
2023-05-08T22:42:00.286Z,10.33
2023-05-08T22:44:28.927Z,10.17
2023-05-08T22:46:57.229Z,12.37
2023-05-08T22:49:27.181Z,12.97
2023-05-08T22:51:55.535Z,8.10
2023-05-08T22:54:24.116Z,9.00
2023-05-08T22:56:52.615Z,9.20
2023-05-08T22:59:20.854Z,10.23
2023-05-08T23:01:49.036Z,9.97
2023-05-08T23:04:17.289Z,11.37
2023-05-08T23:06:46.936Z,9.87
2023-05-08T23:09:15.323Z,11.23
2023-05-08T23:11:43.554Z,10.67
2023-05-08T23:14:11.780Z,10.77
2023-05-08T23:16:40.053Z,10.13
2023-05-08T23:19:09.981Z,9.63
2023-05-08T23:21:38.523Z,13.90
2023-05-08T23:24:08.779Z,9.60
2023-05-08T23:26:37.138Z,11.13
2023-05-08T23:29:05.382Z,13.20
2023-05-08T23:31:33.673Z,10.70
2023-05-08T23:34:01.941Z,11.20
2023-05-08T23:36:30.337Z,15.70
2023-05-08T23:38:58.674Z,11.43
2023-05-08T23:41:28.337Z,9.97
2023-05-08T23:43:56.603Z,12.73
2023-05-08T23:46:24.825Z,9.87
2023-05-08T23:48:53.080Z,10.97
2023-05-08T23:51:22.142Z,10.10
2023-05-08T23:53:50.548Z,9.97
2023-05-08T23:56:18.916Z,10.57
2023-05-08T23:58:48.547Z,11.13
